Time;durP1;ratioP1;P1;durP2;ratioP2;P2;SDS_P1;SDS_P2;PMS_P1;PMS_P2;Temp;Humidity;BMP_temperature;BMP_pressure;BME280_temperature;BME280_humidity;BME280_pressure;Samples;Min_cycle;Max_cycle;Signal;HPM_P1;HPM_P2
2021/12/18 00:00:27;;;;;;;31.45;14.48;;;;;;;1.63;67.76;95772.09;5026353;28;20036;-76
2021/12/18 00:02:52;;;;;;;24.17;13.35;;;;;;;1.60;68.69;95768.72;5026080;28;20033;-78
2021/12/18 00:05:17;;;;;;;19.70;10.57;;;;;;;1.56;68.62;95764.63;5026132;28;20480;-76
2021/12/18 00:07:43;;;;;;;20.52;11.05;;;;;;;1.55;68.07;95768.19;5025755;28;20033;-76
2021/12/18 00:10:08;;;;;;;20.35;10.98;;;;;;;1.62;67.63;95767.75;5026265;28;20045;-76
2021/12/18 00:12:34;;;;;;;16.55;9.77;;;;;;;1.65;67.38;95757.78;5025789;28;20041;-76
2021/12/18 00:14:59;;;;;;;16.33;9.23;;;;;;;1.64;67.00;95760.53;5025942;28;20459;-75
2021/12/18 00:17:25;;;;;;;17.23;9.68;;;;;;;1.61;67.16;95766.91;5026164;28;20036;-75
2021/12/18 00:19:50;;;;;;;16.52;9.50;;;;;;;1.52;66.97;95760.50;5025910;28;20022;-75
2021/12/18 00:22:15;;;;;;;18.02;9.85;;;;;;;1.52;67.62;95772.84;5025909;28;20017;-76
2021/12/18 00:24:41;;;;;;;16.83;9.38;;;;;;;1.44;67.18;95770.78;5025587;28;20447;-76
2021/12/18 00:27:06;;;;;;;16.50;9.48;;;;;;;1.42;67.91;95775.34;5026110;28;20508;-75
2021/12/18 00:29:32;;;;;;;14.65;9.07;;;;;;;1.38;67.03;95768.59;5025560;28;20021;-78
2021/12/18 00:31:57;;;;;;;15.75;9.40;;;;;;;1.45;67.73;95772.50;5026262;28;20040;-78
2021/12/18 00:34:23;;;;;;;15.43;8.57;;;;;;;1.39;67.58;95771.13;5025857;28;20103;-76
2021/12/18 00:36:48;;;;;;;15.25;9.02;;;;;;;1.35;68.20;95773.13;5025426;28;20021;-75
2021/12/18 00:39:14;;;;;;;13.82;8.50;;;;;;;1.41;67.66;95774.50;5026105;28;20029;-75
2021/12/18 00:44:13;;;;;;;16.13;9.02;;;;;;;1.18;67.61;95768.22;5009280;28;20491;-76
2021/12/18 00:46:43;;;;;;;17.83;8.77;;;;;;;1.28;67.22;95773.69;5025649;28;20108;-76
2021/12/18 00:49:14;;;;;;;19.52;8.88;;;;;;;1.28;67.73;95779.81;5025739;28;20056;-75
2021/12/18 00:51:39;;;;;;;20.63;10.05;;;;;;;1.38;67.20;95776.50;5025443;28;20061;-75
2021/12/18 00:54:05;;;;;;;20.92;9.20;;;;;;;1.43;66.49;95777.03;5025557;28;20087;-76
2021/12/18 00:56:30;;;;;;;22.30;9.90;;;;;;;1.37;67.29;95775.66;5025586;28;20033;-75
2021/12/18 00:58:56;;;;;;;20.40;10.52;;;;;;;1.32;66.25;95783.09;5007737;28;20029;-76
2021/12/18 01:01:22;;;;;;;20.05;9.63;;;;;;;1.21;67.02;95784.72;5025792;28;20026;-75
2021/12/18 01:03:49;;;;;;;20.98;10.38;;;;;;;1.26;66.62;95778.25;5007334;28;20463;-77
2021/12/18 01:06:15;;;;;;;21.33;10.95;;;;;;;1.19;66.80;95777.84;5011489;28;20496;-75
2021/12/18 01:08:40;;;;;;;16.27;9.50;;;;;;;1.21;66.62;95778.59;5029431;28;20116;-76
2021/12/18 01:14:07;;;;;;;15.07;9.52;;;;;;;0.91;67.61;95772.75;5008249;28;20562;-76
2021/12/18 01:16:45;;;;;;;17.90;8.85;;;;;;;1.00;67.24;95773.03;4994007;28;20125;-75
2021/12/18 01:24:38;;;;;;;16.15;9.10;;;;;;;1.04;66.95;95774.50;5008909;28;20099;-76
2021/12/18 01:27:04;;;;;;;14.48;8.73;;;;;;;1.04;66.72;95764.78;5009515;28;20026;-76
2021/12/18 01:29:29;;;;;;;18.08;8.07;;;;;;;1.10;67.34;95764.34;5009140;28;20654;-76
2021/12/18 01:31:55;;;;;;;18.80;8.75;;;;;;;1.11;67.41;95773.94;5009318;28;20356;-76
2021/12/18 01:34:20;;;;;;;14.13;8.35;;;;;;;1.08;67.16;95768.88;5008821;28;20030;-77
2021/12/18 01:36:46;;;;;;;15.02;8.57;;;;;;;1.17;66.14;95762.13;5008968;28;20034;-75
2021/12/18 01:39:11;;;;;;;15.60;9.38;;;;;;;0.83;66.93;95781.22;5009193;28;20386;-76
2021/12/18 01:41:55;;;;;;;17.13;9.00;;;;;;;0.98;66.83;95770.50;5007240;28;20464;-76
2021/12/18 01:44:48;;;;;;;15.73;7.95;;;;;;;1.00;67.13;95773.03;5009254;28;20279;-77
2021/12/18 01:52:34;;;;;;;17.08;9.65;;;;;;;1.03;67.54;95755.16;5009175;28;20036;-75
2021/12/18 01:54:59;;;;;;;17.45;9.90;;;;;;;1.05;67.25;95758.53;5008402;28;20105;-76
2021/12/18 01:57:25;;;;;;;20.40;10.63;;;;;;;1.10;67.01;95755.56;5008921;28;20489;-74
2021/12/18 01:59:51;;;;;;;16.70;9.82;;;;;;;1.06;66.18;95754.09;5008022;28;20038;-74
2021/12/18 02:02:16;;;;;;;14.25;8.73;;;;;;;1.00;67.30;95752.72;5008934;28;20502;-76
2021/12/18 02:04:42;;;;;;;13.70;8.02;;;;;;;1.07;66.12;95759.28;5008098;28;20034;-79
2021/12/18 02:07:07;;;;;;;13.57;7.97;;;;;;;0.98;66.94;95752.03;5008908;28;20026;-76
2021/12/18 02:12:19;;;;;;;17.67;9.35;;;;;;;1.03;66.85;95757.78;5011184;28;20069;-76
2021/12/18 02:23:01;;;;;;;13.02;7.57;;;;;;;0.98;66.84;95752.03;5028197;28;20029;-77
2021/12/18 02:25:30;;;;;;;14.32;8.43;;;;;;;0.94;66.55;95747.91;5027886;28;20372;-77
2021/12/18 02:27:55;;;;;;;14.15;7.63;;;;;;;0.94;67.17;95758.47;5027851;28;20017;-75
2021/12/18 02:30:21;;;;;;;13.00;7.82;;;;;;;0.94;67.46;95756.66;5027784;28;20056;-75
2021/12/18 02:32:48;;;;;;;14.25;8.85;;;;;;;0.97;67.01;95759.09;4993891;28;20113;-76
2021/12/18 02:35:29;;;;;;;11.57;7.85;;;;;;;0.95;67.61;95754.88;5027472;28;20038;-75
2021/12/18 02:38:15;;;;;;;13.63;7.97;;;;;;;1.00;67.61;95765.13;5027319;28;20022;-76
2021/12/18 02:43:29;;;;;;;16.52;8.90;;;;;;;0.97;68.11;95766.16;5027380;28;20039;-75
2021/12/18 02:45:59;;;;;;;17.92;10.50;;;;;;;0.97;68.25;95782.88;5027514;28;20079;-74
2021/12/18 02:48:25;;;;;;;17.67;9.75;;;;;;;0.93;67.73;95777.91;5027589;28;20037;-76
2021/12/18 02:50:51;;;;;;;15.23;9.15;;;;;;;0.95;68.28;95783.94;5009673;28;20405;-78
2021/12/18 02:53:16;;;;;;;13.70;8.65;;;;;;;0.94;67.14;95787.50;5027517;28;20523;-76
2021/12/18 02:55:41;;;;;;;14.10;8.55;;;;;;;1.01;68.32;95782.66;5027255;28;20029;-77
2021/12/18 02:58:07;;;;;;;17.75;9.43;;;;;;;1.01;67.50;95782.66;5027484;28;20041;-74
2021/12/18 03:00:33;;;;;;;16.80;9.30;;;;;;;1.01;67.68;95786.13;5027196;28;20025;-76
2021/12/18 03:03:05;;;;;;;19.08;9.65;;;;;;;1.00;67.67;95781.78;5027146;28;20029;-77
2021/12/18 03:05:37;;;;;;;16.65;10.05;;;;;;;1.09;67.66;95778.53;5027501;28;20102;-77
2021/12/18 03:08:11;;;;;;;17.63;9.97;;;;;;;1.06;68.29;95781.38;5026715;28;20491;-74
2021/12/18 03:19:14;;;;;;;14.73;8.02;;;;;;;1.00;70.42;95792.34;5027085;28;20087;-75
2021/12/18 03:22:38;;;;;;;11.75;7.57;;;;;;;1.02;70.92;95792.25;5027051;28;20041;-76
2021/12/18 03:27:20;;;;;;;15.13;8.05;;;;;;;0.97;70.42;95797.88;5026396;28;20136;-76
2021/12/18 03:29:46;;;;;;;16.88;9.02;;;;;;;0.97;71.40;95790.78;5026119;28;20025;-76
2021/12/18 03:32:11;;;;;;;14.95;9.20;;;;;;;0.98;71.31;95792.47;5027087;28;20028;-76
2021/12/18 03:34:37;;;;;;;13.95;9.20;;;;;;;1.01;71.18;95799.34;5026554;28;20029;-75
2021/12/18 03:37:03;;;;;;;19.40;10.07;;;;;;;0.96;70.50;95796.19;5026907;28;20030;-76
2021/12/18 03:39:29;;;;;;;18.88;10.25;;;;;;;0.96;70.97;95793.53;5026150;28;20464;-75
2021/12/18 03:41:54;;;;;;;17.65;10.18;;;;;;;0.96;70.90;95801.47;5009083;28;20029;-75
2021/12/18 03:44:20;;;;;;;15.95;9.52;;;;;;;0.99;71.15;95795.97;5026164;28;20099;-76
2021/12/18 03:46:45;;;;;;;19.60;9.75;;;;;;;1.05;70.41;95803.44;5026459;28;20025;-76
2021/12/18 03:49:11;;;;;;;17.48;10.60;;;;;;;1.06;70.71;95799.88;5026337;28;20014;-75
2021/12/18 03:51:36;;;;;;;19.83;10.20;;;;;;;1.07;71.21;95801.56;5026215;28;20045;-75
2021/12/18 03:54:02;;;;;;;17.17;9.82;;;;;;;1.01;71.88;95799.34;5026302;28;20033;-77
2021/12/18 03:56:28;;;;;;;18.75;10.40;;;;;;;1.04;71.76;95806.19;5025696;28;20060;-75
2021/12/18 03:58:53;;;;;;;26.88;10.70;;;;;;;1.00;71.96;95820.59;5026310;28;20092;-75
2021/12/18 04:01:18;;;;;;;18.85;10.77;;;;;;;1.02;71.42;95808.94;5025797;28;20022;-80
2021/12/18 04:03:44;;;;;;;17.58;10.10;;;;;;;1.02;70.91;95811.59;5026351;28;20060;-77
2021/12/18 04:06:09;;;;;;;20.13;10.80;;;;;;;1.07;70.71;95808.63;5026142;28;20535;-77
2021/12/18 04:08:35;;;;;;;15.45;9.63;;;;;;;0.98;70.89;95810.97;5025642;28;20056;-76
2021/12/18 04:11:00;;;;;;;17.25;9.95;;;;;;;1.08;70.86;95805.88;5026304;28;20412;-77
2021/12/18 04:13:25;;;;;;;21.38;10.00;;;;;;;1.04;71.31;95803.56;5025590;28;20443;-76
2021/12/18 04:15:51;;;;;;;15.88;10.10;;;;;;;0.95;71.57;95810.34;5026176;28;20021;-76
2021/12/18 04:18:16;;;;;;;16.75;10.32;;;;;;;0.93;70.73;95818.38;5008352;28;20499;-77
2021/12/18 04:20:42;;;;;;;15.75;8.07;;;;;;;0.94;71.17;95819.22;5026023;28;20076;-75
2021/12/18 04:23:07;;;;;;;15.93;9.05;;;;;;;0.82;71.26;95813.00;5025821;28;20033;-75
2021/12/18 04:25:33;;;;;;;15.77;8.38;;;;;;;0.89;71.20;95816.91;5025724;28;20056;-79
2021/12/18 04:27:58;;;;;;;14.93;9.80;;;;;;;0.85;70.55;95813.63;5025999;28;20400;-75
2021/12/18 04:30:23;;;;;;;14.70;9.48;;;;;;;0.80;71.47;95818.41;5025831;28;20037;-75
2021/12/18 04:32:49;;;;;;;16.83;9.68;;;;;;;0.83;70.93;95818.19;5026617;28;20032;-75
2021/12/18 04:35:14;;;;;;;20.85;9.50;;;;;;;0.65;70.83;95816.78;5026315;28;20423;-76
2021/12/18 04:37:40;;;;;;;17.80;8.88;;;;;;;0.76;70.11;95811.63;5026365;28;20029;-77
2021/12/18 04:40:06;;;;;;;13.82;8.38;;;;;;;0.84;69.47;95814.56;5028281;28;20423;-75
2021/12/18 04:42:31;;;;;;;12.82;7.72;;;;;;;0.88;69.66;95817.00;5030132;28;20022;-75
2021/12/18 04:44:57;;;;;;;12.07;7.65;;;;;;;0.84;70.18;95817.22;5029880;28;20026;-75
2021/12/18 04:47:22;;;;;;;12.88;7.65;;;;;;;0.85;69.71;95832.09;5030212;28;20030;-75
2021/12/18 04:49:47;;;;;;;15.85;8.10;;;;;;;0.90;69.90;95836.22;5030073;28;20034;-75
2021/12/18 04:52:13;;;;;;;14.55;7.75;;;;;;;0.82;69.95;95845.53;5029839;28;20339;-80
2021/12/18 04:54:38;;;;;;;15.05;8.65;;;;;;;0.81;69.81;95838.56;5012096;28;20025;-77
2021/12/18 04:57:04;;;;;;;12.38;7.63;;;;;;;0.78;70.03;95843.19;5029487;28;20043;-77
2021/12/18 04:59:29;;;;;;;12.18;7.55;;;;;;;0.86;69.30;95849.66;5029555;28;20029;-74
2021/12/18 05:01:55;;;;;;;17.23;7.35;;;;;;;0.93;68.84;95855.38;5011533;28;20025;-77
2021/12/18 05:04:20;;;;;;;12.10;7.28;;;;;;;0.90;68.67;95850.28;5029921;28;20033;-75
2021/12/18 05:06:47;;;;;;;10.65;6.72;;;;;;;0.95;68.53;95861.38;5011390;28;20056;-75
2021/12/18 05:09:13;;;;;;;11.73;6.63;;;;;;;0.86;68.71;95865.50;5011732;28;20530;-76
2021/12/18 05:11:40;;;;;;;11.98;6.93;;;;;;;0.96;68.17;95871.00;5029659;28;20025;-76
2021/12/18 05:14:05;;;;;;;11.40;6.40;;;;;;;1.00;67.67;95874.25;5029246;28;20068;-76
2021/12/18 05:16:31;;;;;;;11.80;6.72;;;;;;;0.98;67.25;95876.16;5029545;28;20025;-77
2021/12/18 05:18:56;;;;;;;12.25;7.13;;;;;;;1.07;67.31;95883.44;5029151;28;20017;-76
2021/12/18 05:21:22;;;;;;;13.52;7.25;;;;;;;1.07;67.64;95880.81;5029637;28;20025;-76
2021/12/18 05:23:48;;;;;;;11.95;7.10;;;;;;;1.01;67.86;95883.88;5029030;28;20026;-75
2021/12/18 05:26:14;;;;;;;13.35;7.68;;;;;;;0.98;67.78;95892.03;5029466;28;20033;-76
2021/12/18 05:28:39;;;;;;;12.95;7.47;;;;;;;0.85;68.00;95895.47;5028886;28;20029;-77
2021/12/18 05:31:04;;;;;;;11.68;7.57;;;;;;;0.86;68.32;95893.69;5029144;28;20034;-76
2021/12/18 05:33:30;;;;;;;13.30;7.38;;;;;;;0.95;67.65;95902.81;5029252;28;20079;-76
2021/12/18 05:35:55;;;;;;;15.48;8.48;;;;;;;1.01;68.08;95899.72;5028616;28;20115;-76
2021/12/18 05:38:21;;;;;;;12.73;7.25;;;;;;;1.01;67.56;95902.38;5029027;28;20022;-76
2021/12/18 05:40:46;;;;;;;14.68;7.88;;;;;;;1.10;67.73;95901.72;5028427;28;20025;-76
2021/12/18 05:43:12;;;;;;;13.75;7.65;;;;;;;1.10;67.47;95899.09;5028772;28;20141;-75
2021/12/18 05:45:37;;;;;;;14.07;8.20;;;;;;;1.13;67.06;95905.13;5028454;28;20040;-76
2021/12/18 05:48:03;;;;;;;14.55;8.30;;;;;;;1.10;67.42;95904.38;5011093;28;20108;-79
2021/12/18 05:50:29;;;;;;;17.92;8.52;;;;;;;1.08;67.16;95900.97;5028247;28;20025;-76
2021/12/18 05:52:56;;;;;;;13.57;8.13;;;;;;;1.03;67.15;95913.66;5009953;28;20458;-77
2021/12/18 05:55:24;;;;;;;15.13;7.28;;;;;;;0.93;67.54;95912.63;5011136;28;20021;-76
2021/12/18 05:57:49;;;;;;;11.75;7.20;;;;;;;0.88;68.26;95912.94;5027966;28;20033;-75
2021/12/18 06:00:15;;;;;;;13.57;6.65;;;;;;;0.89;68.62;95927.81;5011034;28;20144;-75
2021/12/18 06:02:40;;;;;;;16.02;8.18;;;;;;;0.94;70.09;95930.16;5010759;28;20030;-76
2021/12/18 06:05:07;;;;;;;12.35;7.90;;;;;;;0.74;71.30;95925.28;5010546;28;20021;-76
2021/12/18 06:07:43;;;;;;;12.70;7.32;;;;;;;0.77;71.81;95924.25;5028695;28;20483;-76
2021/12/18 06:10:09;;;;;;;15.93;7.68;;;;;;;0.72;71.54;95924.56;5027980;28;20021;-78
2021/12/18 06:12:34;;;;;;;16.15;7.90;;;;;;;0.76;72.20;95926.97;5010303;28;20049;-77
2021/12/18 06:15:00;;;;;;;15.23;7.22;;;;;;;0.77;71.73;95929.53;5027673;28;20467;-77
2021/12/18 06:17:25;;;;;;;15.00;8.35;;;;;;;0.74;71.63;95929.72;5010757;28;20112;-76
2021/12/18 06:19:51;;;;;;;19.35;10.32;;;;;;;0.77;71.61;95933.94;5027671;28;20025;-77
2021/12/18 06:22:16;;;;;;;16.60;9.50;;;;;;;0.84;70.53;95937.84;5028226;28;20483;-78
2021/12/18 06:24:42;;;;;;;17.02;9.13;;;;;;;0.91;70.25;95940.91;5027875;28;20022;-75
2021/12/18 06:27:07;;;;;;;18.52;9.38;;;;;;;0.88;69.88;95946.41;5010321;28;20047;-76
2021/12/18 06:29:33;;;;;;;14.77;8.02;;;;;;;0.89;70.66;95951.59;5010362;28;20033;-77
2021/12/18 06:31:59;;;;;;;13.68;8.82;;;;;;;0.85;70.86;95953.59;5028018;28;20427;-76
2021/12/18 06:34:25;;;;;;;17.25;9.80;;;;;;;0.89;71.71;95954.22;5027986;28;20491;-76
2021/12/18 06:36:50;;;;;;;17.05;10.07;;;;;;;0.89;71.45;95958.69;5027647;28;20029;-75
2021/12/18 06:39:15;;;;;;;18.70;10.25;;;;;;;0.86;72.25;95965.88;5027755;28;20022;-77
2021/12/18 06:41:41;;;;;;;17.02;9.60;;;;;;;0.91;72.45;95957.63;5027440;28;20029;-76
2021/12/18 06:44:06;;;;;;;18.35;10.18;;;;;;;0.86;72.36;95959.72;5027888;28;20025;-76
2021/12/18 06:46:32;;;;;;;19.60;11.13;;;;;;;0.92;72.63;95958.47;5009845;28;20099;-77
2021/12/18 06:48:57;;;;;;;23.55;10.95;;;;;;;0.96;72.41;95971.38;5009649;28;20034;-76
2021/12/18 06:51:23;;;;;;;19.65;10.32;;;;;;;0.98;72.32;95968.63;5028111;28;20028;-78
2021/12/18 06:53:48;;;;;;;18.73;11.10;;;;;;;0.99;72.59;95970.31;5027380;28;20025;-76
2021/12/18 06:56:14;;;;;;;18.02;10.52;;;;;;;1.05;72.26;95975.16;5027909;28;20037;-76
2021/12/18 06:58:39;;;;;;;15.60;10.13;;;;;;;1.14;71.13;95981.63;5027887;28;20022;-76
2021/12/18 07:01:05;;;;;;;19.23;10.20;;;;;;;1.17;71.52;95977.94;5027220;28;20049;-77
2021/12/18 07:03:30;;;;;;;17.80;9.75;;;;;;;1.20;70.53;95981.22;5026860;28;20060;-78
2021/12/18 07:05:56;;;;;;;19.33;10.55;;;;;;;1.22;70.52;95981.09;5027412;28;20076;-77
2021/12/18 07:08:21;;;;;;;17.10;10.00;;;;;;;1.26;70.59;95982.56;5026782;28;20036;-75
2021/12/18 07:10:47;;;;;;;17.80;9.68;;;;;;;1.20;70.87;95983.00;4993129;28;20025;-75
2021/12/18 07:13:12;;;;;;;19.38;10.38;;;;;;;1.29;69.78;95985.00;5026886;28;20026;-76
2021/12/18 07:15:38;;;;;;;19.55;11.38;;;;;;;1.25;69.86;95985.31;5026881;28;20046;-75
2021/12/18 07:18:03;;;;;;;17.80;9.82;;;;;;;1.32;69.54;95987.44;5027119;28;20052;-75
2021/12/18 07:20:29;;;;;;;20.33;11.43;;;;;;;1.32;69.52;95990.09;5008955;28;20041;-76
2021/12/18 07:22:55;;;;;;;19.77;10.02;;;;;;;1.40;69.82;95994.00;5027076;28;20049;-75
2021/12/18 07:25:21;;;;;;;16.67;9.13;;;;;;;1.50;68.89;95995.03;5026317;28;20049;-76
2021/12/18 07:27:46;;;;;;;19.40;9.80;;;;;;;1.47;69.63;96003.19;5026970;28;20021;-76
2021/12/18 07:30:12;;;;;;;14.65;9.43;;;;;;;1.56;69.27;95992.00;5026390;28;20030;-75
2021/12/18 07:32:38;;;;;;;16.13;9.15;;;;;;;1.58;69.03;96002.47;5026873;28;20040;-77
2021/12/18 07:35:04;;;;;;;16.10;9.57;;;;;;;1.58;68.14;96010.41;5009321;28;20029;-76
2021/12/18 07:37:30;;;;;;;12.77;7.70;;;;;;;1.79;67.99;96013.31;5026433;28;20120;-76
2021/12/18 07:39:55;;;;;;;15.13;8.65;;;;;;;2.02;67.17;96024.06;5026734;28;20037;-76
2021/12/18 07:42:21;;;;;;;14.63;8.85;;;;;;;2.28;66.22;96013.44;5025872;28;20025;-74
2021/12/18 07:44:46;;;;;;;14.27;8.25;;;;;;;2.20;66.70;96013.97;5026583;28;20064;-75
2021/12/18 07:47:12;;;;;;;15.00;7.97;;;;;;;2.15;66.77;96020.53;5026246;28;20038;-76
2021/12/18 07:49:37;;;;;;;14.05;8.13;;;;;;;2.14;66.96;96022.38;5008733;28;20025;-76
2021/12/18 07:52:04;;;;;;;15.10;9.10;;;;;;;2.14;66.72;96030.31;5026371;28;20025;-76
2021/12/18 07:54:30;;;;;;;19.80;9.77;;;;;;;2.10;66.97;96032.31;5025968;28;20030;-76
2021/12/18 07:56:55;;;;;;;16.98;10.30;;;;;;;2.05;67.48;96036.22;4976184;28;20037;-77
2021/12/18 07:59:21;;;;;;;17.33;9.95;;;;;;;2.14;67.30;96038.25;5025655;28;20033;-76
2021/12/18 08:01:46;;;;;;;18.63;10.32;;;;;;;2.06;67.75;96033.47;5026481;28;20029;-77
2021/12/18 08:04:11;;;;;;;20.23;9.30;;;;;;;2.38;66.48;96039.22;5025877;28;20034;-75
2021/12/18 08:06:37;;;;;;;15.95;9.98;;;;;;;2.58;66.11;96041.25;5026034;28;20040;-75
2021/12/18 08:09:03;;;;;;;13.65;9.15;;;;;;;2.81;65.65;96030.78;5025957;28;20025;-76
2021/12/18 08:11:28;;;;;;;16.27;9.25;;;;;;;2.86;64.45;96037.53;5025943;28;20021;-75
2021/12/18 08:13:53;;;;;;;14.70;8.32;;;;;;;3.14;64.27;96039.00;5025234;28;20064;-76
2021/12/18 08:16:19;;;;;;;13.80;7.75;;;;;;;3.28;63.06;96040.59;5025798;28;20041;-76
2021/12/18 08:18:44;;;;;;;12.93;7.95;;;;;;;3.30;63.12;96046.63;5026026;28;20046;-75
2021/12/18 08:21:10;;;;;;;14.65;7.40;;;;;;;3.53;63.40;96044.00;5025781;28;20030;-79
2021/12/18 08:23:35;;;;;;;11.75;7.60;;;;;;;3.73;61.58;96049.59;5025895;28;20034;-75
2021/12/18 08:26:00;;;;;;;11.77;7.70;;;;;;;3.98;61.17;96055.66;5028885;28;20029;-75
2021/12/18 08:28:26;;;;;;;15.23;7.40;;;;;;;4.04;60.71;96052.50;5026177;28;20040;-76
2021/12/18 08:30:51;;;;;;;15.90;7.95;;;;;;;3.91;59.75;96057.94;5025904;28;20026;-75
2021/12/18 08:33:17;;;;;;;13.02;8.18;;;;;;;3.85;60.47;96060.22;5026294;28;20029;-77
2021/12/18 08:35:42;;;;;;;12.05;7.70;;;;;;;3.73;61.78;96057.53;5026012;28;20026;-77
2021/12/18 08:38:08;;;;;;;12.60;7.40;;;;;;;3.81;60.97;96057.78;5025729;28;20037;-75
2021/12/18 08:40:34;;;;;;;15.70;8.43;;;;;;;3.91;61.29;96057.06;5008030;28;20030;-77
2021/12/18 08:42:59;;;;;;;9.27;6.13;;;;;;;3.80;60.63;96050.81;5025270;28;20026;-76
2021/12/18 08:45:25;;;;;;;11.23;7.32;;;;;;;3.83;60.78;96058.53;5025872;28;20033;-76
2021/12/18 08:47:51;;;;;;;9.02;5.95;;;;;;;3.72;60.05;96058.50;5025321;28;20112;-76
2021/12/18 08:50:17;;;;;;;10.10;6.30;;;;;;;3.89;59.67;96059.00;5026024;28;20057;-76
2021/12/18 08:52:43;;;;;;;9.43;6.05;;;;;;;4.07;59.34;96057.56;5025668;28;20114;-77
2021/12/18 08:55:09;;;;;;;8.55;6.00;;;;;;;3.98;59.88;96060.09;5008133;28;20076;-77
2021/12/18 08:57:34;;;;;;;12.10;7.78;;;;;;;4.02;59.22;96059.72;5025621;28;20064;-77
2021/12/18 09:00:00;;;;;;;13.07;7.63;;;;;;;4.03;59.80;96063.25;5025498;28;20033;-77
2021/12/18 09:02:25;;;;;;;12.95;7.63;;;;;;;3.83;60.47;96057.69;5025822;28;20021;-75
2021/12/18 09:04:51;;;;;;;10.65;7.18;;;;;;;3.73;60.93;96060.19;5025011;28;20029;-76
2021/12/18 09:07:16;;;;;;;12.07;6.82;;;;;;;3.64;60.78;96058.25;5025994;28;20116;-76
2021/12/18 09:09:42;;;;;;;11.70;7.10;;;;;;;3.53;61.11;96057.25;5025437;28;20029;-76
2021/12/18 09:12:08;;;;;;;12.07;7.25;;;;;;;3.49;61.29;96053.16;5025549;28;20466;-77
2021/12/18 09:14:34;;;;;;;11.82;7.47;;;;;;;3.71;61.55;96051.50;5025522;28;20136;-77
2021/12/18 09:17:02;;;;;;;15.35;7.55;;;;;;;3.94;61.00;96047.06;5025259;28;20021;-77
2021/12/18 09:19:27;;;;;;;10.75;6.18;;;;;;;3.75;61.67;96058.28;5025685;28;20029;-80
2021/12/18 09:21:52;;;;;;;7.85;4.90;;;;;;;3.59;61.43;96043.53;5024938;28;20025;-78
2021/12/18 09:24:20;;;;;;;6.65;4.55;;;;;;;3.53;61.21;96051.94;5025998;28;20025;-76
2021/12/18 09:26:46;;;;;;;8.02;5.53;;;;;;;3.47;61.96;96047.13;5028225;28;20041;-77
2021/12/18 09:29:11;;;;;;;9.52;4.82;;;;;;;3.73;61.09;96048.72;5029102;28;20033;-77
2021/12/18 09:31:37;;;;;;;7.80;5.05;;;;;;;3.78;60.96;96051.88;5029024;28;20452;-76
2021/12/18 09:34:02;;;;;;;7.53;4.75;;;;;;;3.69;61.13;96053.44;5028636;28;20041;-77
2021/12/18 09:36:27;;;;;;;6.50;4.40;;;;;;;3.52;61.60;96047.63;5028941;28;20408;-79
2021/12/18 09:38:53;;;;;;;8.43;5.70;;;;;;;3.49;61.37;96047.00;5028589;28;20021;-77
2021/12/18 09:41:18;;;;;;;7.63;5.10;;;;;;;3.44;61.62;96040.25;5029028;28;20045;-77
2021/12/18 09:43:44;;;;;;;6.55;4.25;;;;;;;3.41;61.44;96048.47;5028390;28;20377;-78
2021/12/18 09:46:12;;;;;;;7.95;4.82;;;;;;;3.34;62.89;96040.13;5011330;28;20412;-80
2021/12/18 09:48:38;;;;;;;8.82;7.93;;;;;;;3.45;61.92;96036.63;5028545;28;20032;-77
2021/12/18 09:51:08;;;;;;;7.50;4.35;;;;;;;3.54;61.83;96045.72;5028674;28;20519;-77
2021/12/18 09:53:34;;;;;;;7.32;4.97;;;;;;;3.55;62.73;96042.09;5011679;28;20021;-77
2021/12/18 09:56:00;;;;;;;7.40;4.60;;;;;;;3.60;62.00;96044.38;5028100;28;20061;-76
2021/12/18 09:58:26;;;;;;;22.80;21.05;;;;;;;3.67;62.41;96040.31;5028541;28;20033;-76
2021/12/18 10:00:51;;;;;;;7.13;4.25;;;;;;;3.79;61.26;96030.53;5027986;28;20029;-77
2021/12/18 10:03:17;;;;;;;7.50;4.97;;;;;;;3.83;60.59;96026.69;5010724;28;20885;-76
2021/12/18 10:05:42;;;;;;;7.70;5.05;;;;;;;3.95;59.67;96026.66;5028451;28;20032;-76
2021/12/18 10:08:15;;;;;;;6.28;4.35;;;;;;;4.13;60.02;96027.03;5029060;28;20080;-75
2021/12/18 10:11:05;;;;;;;8.52;4.20;;;;;;;4.26;58.99;96023.38;5028549;28;20028;-76
2021/12/18 10:13:49;;;;;;;6.22;4.43;;;;;;;4.20;59.05;96022.06;5028368;28;20033;-76
2021/12/18 10:16:15;;;;;;;7.07;4.53;;;;;;;4.24;59.20;96004.91;5028299;28;20040;-77
2021/12/18 10:18:40;;;;;;;8.75;4.63;;;;;;;4.28;58.67;96005.53;5028060;28;20411;-74
2021/12/18 10:21:11;;;;;;;7.95;4.53;;;;;;;4.34;59.02;96010.34;5027846;28;20412;-76
2021/12/18 10:23:36;;;;;;;7.45;5.00;;;;;;;4.36;59.47;96007.56;4994413;28;20018;-75
2021/12/18 10:26:02;;;;;;;8.02;5.00;;;;;;;4.42;58.27;96013.22;5027833;28;20025;-76
2021/12/18 10:28:29;;;;;;;7.47;4.68;;;;;;;4.42;57.37;96015.03;5028047;28;20029;-75
2021/12/18 10:30:56;;;;;;;8.43;5.25;;;;;;;4.50;57.54;96009.09;4994108;28;20037;-77
2021/12/18 10:33:27;;;;;;;9.35;5.53;;;;;;;4.55;56.50;96015.72;5028317;28;20112;-77
2021/12/18 10:35:54;;;;;;;7.00;4.75;;;;;;;4.52;55.96;96012.47;5027603;28;20393;-77
2021/12/18 10:38:48;;;;;;;29.88;5.53;;;;;;;4.60;54.92;96004.72;5026954;28;20036;-76
2021/12/18 10:41:19;;;;;;;;;;;;;;;4.57;53.18;96013.78;5010327;28;20062;-76
2021/12/18 10:44:13;;;;;;;10.73;3.33;;;;;;;4.52;55.29;96002.69;5027859;28;19936;-77
2021/12/18 10:46:44;;;;;;;7.25;3.05;;;;;;;4.50;54.16;96001.97;5027085;28;20045;-77
2021/12/18 10:49:17;;;;;;;5.78;3.67;;;;;;;4.44;53.84;95991.84;5027260;28;20026;-76
2021/12/18 10:51:43;;;;;;;4.72;2.83;;;;;;;4.39;53.06;95996.69;5010187;28;20548;-75
2021/12/18 10:54:12;;;;;;;9.65;3.17;;;;;;;4.33;52.64;95995.38;5027486;28;20033;-75
2021/12/18 10:56:39;;;;;;;5.63;3.10;;;;;;;4.40;52.94;95988.59;5027377;28;20644;-76
2021/12/18 10:59:19;;;;;;;6.03;3.20;;;;;;;4.45;52.85;95991.72;5027414;28;20032;-78
2021/12/18 11:01:48;;;;;;;5.95;3.60;;;;;;;4.42;52.93;95988.47;5027426;28;20068;-76
2021/12/18 11:04:13;;;;;;;4.68;2.75;;;;;;;4.47;53.24;95988.06;5010070;28;20037;-76
2021/12/18 11:06:39;;;;;;;7.82;3.65;;;;;;;4.36;52.90;95988.97;4995262;28;20026;-74
2021/12/18 11:09:13;;;;;;;5.60;3.72;;;;;;;4.25;54.89;95993.34;5009591;28;20029;-75
2021/12/18 11:14:13;;;;;;;5.07;2.65;;;;;;;4.32;52.52;95988.38;5026530;28;20444;-77
2021/12/18 11:16:43;;;;;;;4.72;3.13;;;;;;;4.31;52.79;95994.66;5027010;28;20463;-76
2021/12/18 11:19:14;;;;;;;3.67;2.53;;;;;;;4.27;52.92;95998.53;5026798;28;20022;-76
2021/12/18 11:21:41;;;;;;;4.82;3.20;;;;;;;4.24;53.95;96002.25;5027270;28;20105;-75
2021/12/18 11:24:07;;;;;;;5.47;3.40;;;;;;;4.23;55.61;95995.28;5027048;28;20060;-75
2021/12/18 11:27:02;;;;;;;6.28;3.17;;;;;;;4.25;55.60;95996.00;5009070;28;20022;-77
2021/12/18 11:29:40;;;;;;;7.97;3.97;;;;;;;4.20;55.11;95996.38;5026760;28;20033;-76
2021/12/18 11:32:16;;;;;;;7.03;3.95;;;;;;;4.06;55.48;96002.75;5026591;28;20044;-76
2021/12/18 11:34:41;;;;;;;7.38;4.18;;;;;;;4.09;55.81;95999.03;5010469;28;20513;-78
2021/12/18 11:37:07;;;;;;;8.02;3.92;;;;;;;4.01;55.05;96002.31;5026500;28;20033;-76
2021/12/18 11:39:33;;;;;;;5.65;4.05;;;;;;;4.07;56.38;96001.81;5026176;28;20113;-77
2021/12/18 11:41:58;;;;;;;9.13;4.70;;;;;;;4.08;55.64;96010.59;4992634;28;20451;-77
2021/12/18 11:44:27;;;;;;;7.93;4.03;;;;;;;4.13;55.88;95996.97;5008602;28;20480;-76
2021/12/18 11:46:53;;;;;;;6.60;4.00;;;;;;;4.16;56.69;95999.41;5026889;28;20104;-77
2021/12/18 11:49:19;;;;;;;7.63;4.10;;;;;;;4.20;54.94;95995.53;5024939;28;20128;-78
2021/12/18 11:51:58;;;;;;;3.25;2.67;;;;;;;4.13;56.06;95995.16;5026764;28;20024;-77
2021/12/18 11:54:49;;;;;;;3.03;2.10;;;;;;;3.94;57.85;95990.47;5026045;28;20052;-77
2021/12/18 11:57:35;;;;;;;3.78;2.17;;;;;;;3.53;60.15;96004.22;5026333;28;20116;-78
2021/12/18 12:00:00;;;;;;;3.67;2.60;;;;;;;3.27;62.89;96011.53;5026602;28;20119;-75
2021/12/18 12:02:48;;;;;;;3.78;2.60;;;;;;;3.04;64.15;96007.03;5025735;28;20484;-77
2021/12/18 12:05:15;;;;;;;4.15;2.80;;;;;;;2.87;65.39;96004.81;5026243;28;20113;-77
2021/12/18 12:07:40;;;;;;;3.67;2.80;;;;;;;2.82;65.14;96002.50;5008866;28;20033;-77
2021/12/18 12:10:45;;;;;;;4.35;2.85;;;;;;;2.84;65.99;96005.84;5009164;28;20026;-77
2021/12/18 12:13:08;;;;;;;5.47;3.20;;;;;;;2.80;66.36;96004.41;5026598;28;20045;-76
2021/12/18 12:15:33;;;;;;;5.07;3.10;;;;;;;2.86;66.10;96006.59;5026445;28;20423;-77
2021/12/18 12:18:00;;;;;;;4.80;2.97;;;;;;;2.74;65.75;96010.16;5009112;28;20036;-75